Time;durP1;ratioP1;P1;durP2;ratioP2;P2;SDS_P1;SDS_P2;PMS_P1;PMS_P2;Temp;Humidity;BMP_temperature;BMP_pressure;BME280_temperature;BME280_humidity;BME280_pressure;Samples;Min_cycle;Max_cycle;Signal;HPM_P1;HPM_P2
2023/07/27 00:02:11;;;;;;;1.73;1.60;;;16.70;99.90;;;;;;7384505;19;20142;-75
2023/07/27 00:04:37;;;;;;;1.85;1.58;;;16.80;99.90;;;;;;7389035;19;20134;-75
2023/07/27 00:07:03;;;;;;;3.63;2.05;;;16.70;99.90;;;;;;7391238;19;20551;-75
2023/07/27 00:09:28;;;;;;;2.88;1.83;;;16.60;99.90;;;;;;7386391;19;20146;-76
2023/07/27 00:11:55;;;;;;;3.03;1.63;;;16.40;99.90;;;;;;7389339;19;20150;-74
2023/07/27 00:14:21;;;;;;;2.47;1.90;;;16.50;99.90;;;;;;7389114;19;20320;-76
2023/07/27 00:16:47;;;;;;;2.78;1.83;;;16.40;99.90;;;;;;7388791;19;20223;-76
2023/07/27 00:19:12;;;;;;;2.65;1.75;;;16.50;99.90;;;;;;7387042;19;20160;-76
2023/07/27 00:21:38;;;;;;;2.88;2.00;;;16.40;99.90;;;;;;7389671;19;20142;-75
2023/07/27 00:24:04;;;;;;;2.55;1.75;;;16.60;99.90;;;;;;7391143;19;20606;-75
2023/07/27 00:26:30;;;;;;;1.88;1.67;;;17.00;99.90;;;;;;7387502;19;20146;-75
2023/07/27 00:28:56;;;;;;;2.47;2.00;;;16.60;99.90;;;;;;7385362;19;20149;-75
2023/07/27 00:31:24;;;;;;;4.82;1.90;;;16.70;99.90;;;;;;7388615;19;20176;-75
2023/07/27 00:33:50;;;;;;;2.22;1.90;;;16.80;99.90;;;;;;7389588;19;20143;-75
2023/07/27 00:36:16;;;;;;;2.65;1.83;;;17.00;99.90;;;;;;7387640;19;20153;-75
2023/07/27 00:38:41;;;;;;;3.47;2.38;;;17.10;99.90;;;;;;7386774;19;20235;-75
2023/07/27 00:41:08;;;;;;;2.40;1.88;;;17.30;99.90;;;;;;7383688;19;20146;-75
2023/07/27 00:43:34;;;;;;;2.22;1.80;;;17.30;99.90;;;;;;7387818;19;20138;-75
2023/07/27 00:45:59;;;;;;;2.30;1.67;;;17.10;99.90;;;;;;7387771;19;20558;-75
2023/07/27 00:48:25;;;;;;;2.25;1.63;;;17.30;99.90;;;;;;7387903;19;20138;-75
2023/07/27 00:50:53;;;;;;;3.45;1.90;;;17.50;99.90;;;;;;7387414;19;20147;-75
2023/07/27 00:53:19;;;;;;;2.78;1.67;;;17.40;99.90;;;;;;7389130;19;20493;-74
2023/07/27 00:55:46;;;;;;;3.17;1.75;;;17.40;99.90;;;;;;7386600;19;20156;-74
2023/07/27 00:58:12;;;;;;;2.80;1.83;;;17.40;99.90;;;;;;7387664;19;20162;-75
2023/07/27 01:00:42;;;;;;;3.40;1.90;;;17.00;99.90;;;;;;7387619;19;20171;-73
2023/07/27 01:03:08;;;;;;;1.95;1.65;;;17.00;99.90;;;;;;7387834;19;20474;-74
2023/07/27 01:05:35;;;;;;;2.45;2.03;;;16.90;99.90;;;;;;7387001;19;20135;-73
2023/07/27 01:08:01;;;;;;;1.77;1.65;;;17.10;99.90;;;;;;7386192;19;20694;-73
2023/07/27 01:10:40;;;;;;;2.58;1.60;;;16.80;99.90;;;;;;7382324;19;20135;-73
2023/07/27 01:13:17;;;;;;;2.15;1.63;;;16.70;99.90;;;;;;7388834;19;20204;-73
2023/07/27 01:15:51;;;;;;;2.65;1.70;;;16.30;99.90;;;;;;7387126;19;20165;-73
2023/07/27 01:18:32;;;;;;;2.30;2.00;;;16.50;99.90;;;;;;7383958;19;20180;-73
2023/07/27 01:21:13;;;;;;;3.55;2.55;;;16.90;99.90;;;;;;7387054;19;20157;-73
2023/07/27 01:24:05;;;;;;;3.25;1.88;;;17.00;99.90;;;;;;7389417;19;20164;-73
2023/07/27 01:27:04;;;;;;;3.35;1.80;;;17.10;99.90;;;;;;7385847;19;20146;-73
2023/07/27 01:29:57;;;;;;;2.47;1.70;;;16.90;99.90;;;;;;7385726;19;20139;-73
2023/07/27 01:32:28;;;;;;;2.13;1.63;;;17.00;99.90;;;;;;7388456;19;20138;-73
2023/07/27 01:34:58;;;;;;;1.88;1.60;;;17.10;99.90;;;;;;7389618;19;20661;-74
2023/07/27 01:37:28;;;;;;;1.95;1.60;;;17.30;99.90;;;;;;7386838;19;20475;-74
2023/07/27 01:39:56;;;;;;;6.47;2.25;;;17.20;99.90;;;;;;7384929;19;20138;-72
2023/07/27 01:42:23;;;;;;;1.63;1.48;;;17.30;99.90;;;;;;7386094;19;20523;-73
2023/07/27 01:44:51;;;;;;;2.55;1.70;;;17.10;99.90;;;;;;7387791;19;20472;-74
2023/07/27 01:47:18;;;;;;;2.10;1.55;;;16.70;99.90;;;;;;7387425;19;20139;-73
2023/07/27 01:49:45;;;;;;;2.28;1.65;;;16.80;99.90;;;;;;7385028;19;20144;-73
2023/07/27 01:52:14;;;;;;;3.60;2.08;;;17.10;99.90;;;;;;7383442;19;20169;-72
2023/07/27 01:54:39;;;;;;;1.88;1.33;;;17.20;99.90;;;;;;7386743;19;20282;-73
2023/07/27 01:57:06;;;;;;;1.67;1.52;;;17.20;99.90;;;;;;7388102;19;20127;-73
2023/07/27 01:59:33;;;;;;;2.85;1.60;;;17.20;99.90;;;;;;7383786;19;20153;-73
2023/07/27 02:02:00;;;;;;;1.80;1.63;;;17.10;99.90;;;;;;7389742;19;20231;-74
2023/07/27 02:04:27;;;;;;;1.95;1.42;;;17.00;99.90;;;;;;7386125;19;20214;-74
2023/07/27 02:06:52;;;;;;;2.13;1.60;;;16.80;99.90;;;;;;7385601;19;20519;-73
2023/07/27 02:09:18;;;;;;;2.08;1.67;;;16.90;99.90;;;;;;7378463;19;20154;-73
2023/07/27 02:11:50;;;;;;;2.85;1.80;;;17.00;99.90;;;;;;7386856;19;20150;-73
2023/07/27 02:14:20;;;;;;;5.25;1.73;;;17.00;99.90;;;;;;7386068;19;20183;-73
2023/07/27 02:16:56;;;;;;;3.35;1.90;;;17.00;99.90;;;;;;7384874;19;20146;-73
2023/07/27 02:19:29;;;;;;;3.28;1.95;;;17.00;99.90;;;;;;7386709;19;20206;-73
2023/07/27 02:21:55;;;;;;;2.00;1.70;;;17.00;99.90;;;;;;7386164;19;20141;-74
2023/07/27 02:24:22;;;;;;;4.80;2.00;;;16.90;99.90;;;;;;7385741;19;20149;-73
2023/07/27 02:26:48;;;;;;;2.10;1.50;;;16.90;99.90;;;;;;7382355;19;20241;-74
2023/07/27 02:29:15;;;;;;;2.58;1.45;;;16.80;99.90;;;;;;7382141;19;20155;-74
2023/07/27 02:31:41;;;;;;;1.95;1.45;;;16.80;99.90;;;;;;7383997;19;20131;-73
2023/07/27 02:34:07;;;;;;;1.67;1.40;;;16.80;99.90;;;;;;7385036;19;20139;-73
2023/07/27 02:36:33;;;;;;;4.50;1.77;;;16.90;99.90;;;;;;7382885;19;20473;-73
2023/07/27 02:38:58;;;;;;;2.42;1.35;;;16.90;99.90;;;;;;7384543;19;20438;-74
2023/07/27 02:41:27;;;;;;;2.60;1.45;;;16.90;99.90;;;;;;7382745;19;20142;-73
2023/07/27 02:43:52;;;;;;;2.70;1.63;;;16.90;99.90;;;;;;7385757;19;20147;-73
2023/07/27 02:46:18;;;;;;;1.80;1.30;;;16.80;99.90;;;;;;7385812;19;20586;-73
2023/07/27 02:48:44;;;;;;;2.80;1.70;;;16.80;99.90;;;;;;7381206;19;20210;-73
2023/07/27 02:51:09;;;;;;;2.33;1.70;;;16.90;99.90;;;;;;7385238;19;20692;-72
2023/07/27 02:53:35;;;;;;;2.65;1.73;;;17.10;99.90;;;;;;7384373;19;20135;-73
2023/07/27 02:56:03;;;;;;;2.83;1.55;;;16.90;99.90;;;;;;7382374;19;20146;-73
2023/07/27 02:58:29;;;;;;;1.98;1.77;;;16.90;99.90;;;;;;7384582;19;20463;-73
2023/07/27 03:00:59;;;;;;;2.15;1.52;;;17.00;99.90;;;;;;7383319;19;20131;-73
2023/07/27 03:03:25;;;;;;;2.70;1.77;;;17.10;99.90;;;;;;7383222;19;20172;-73
2023/07/27 03:06:02;;;;;;;3.95;1.60;;;17.00;99.90;;;;;;7382718;19;20150;-73
2023/07/27 03:08:30;;;;;;;1.67;1.58;;;17.00;99.90;;;;;;7382046;19;20142;-73
2023/07/27 03:11:01;;;;;;;4.13;1.60;;;17.10;99.90;;;;;;7384065;19;20131;-73
2023/07/27 03:13:27;;;;;;;2.22;1.70;;;17.10;99.90;;;;;;7384218;19;20146;-73
2023/07/27 03:15:53;;;;;;;2.45;1.35;;;17.20;99.90;;;;;;7385363;19;20168;-73
2023/07/27 03:18:21;;;;;;;2.47;1.48;;;17.20;99.90;;;;;;7383852;19;20523;-73
2023/07/27 03:20:46;;;;;;;3.28;1.92;;;17.20;99.90;;;;;;7385200;19;20485;-73
2023/07/27 03:23:12;;;;;;;1.98;1.60;;;17.20;99.90;;;;;;7382516;19;20135;-73
2023/07/27 03:25:39;;;;;;;2.47;1.45;;;17.30;99.90;;;;;;7382475;19;20150;-74
2023/07/27 03:28:06;;;;;;;2.65;1.50;;;17.30;99.90;;;;;;7380222;19;20152;-73
2023/07/27 03:30:33;;;;;;;2.17;1.38;;;17.30;99.90;;;;;;7383032;19;20139;-73
2023/07/27 03:32:59;;;;;;;2.20;1.45;;;17.10;99.90;;;;;;7383561;19;20142;-73
2023/07/27 03:35:25;;;;;;;2.85;1.98;;;17.20;99.90;;;;;;7382276;19;20150;-73
2023/07/27 03:37:51;;;;;;;1.80;1.50;;;17.10;99.90;;;;;;7381678;19;20154;-72
2023/07/27 03:40:18;;;;;;;3.78;1.70;;;17.00;99.90;;;;;;7383543;19;20176;-73
2023/07/27 03:42:44;;;;;;;1.85;1.52;;;17.00;99.90;;;;;;7380610;19;20147;-73
2023/07/27 03:45:10;;;;;;;2.75;1.60;;;17.00;99.90;;;;;;7380342;19;20162;-73
2023/07/27 03:47:36;;;;;;;1.90;1.73;;;17.00;99.90;;;;;;7379048;19;20254;-73
2023/07/27 03:50:02;;;;;;;3.47;1.70;;;17.00;99.90;;;;;;7381442;19;20138;-73
2023/07/27 03:52:27;;;;;;;3.00;1.60;;;17.00;99.90;;;;;;7380587;19;20134;-73
2023/07/27 03:54:53;;;;;;;1.80;1.60;;;16.90;99.90;;;;;;7381828;19;20176;-72
2023/07/27 03:57:19;;;;;;;3.10;1.65;;;16.70;99.90;;;;;;7382460;19;20139;-73
2023/07/27 03:59:44;;;;;;;2.50;1.63;;;16.70;99.90;;;;;;7379364;19;20142;-73
2023/07/27 04:02:10;;;;;;;2.15;1.50;;;16.70;99.90;;;;;;7380484;19;20145;-73
2023/07/27 04:04:36;;;;;;;2.67;1.60;;;16.80;99.90;;;;;;7382614;19;20194;-72
2023/07/27 04:07:01;;;;;;;2.67;1.70;;;16.80;99.90;;;;;;7381721;19;20155;-72
2023/07/27 04:09:27;;;;;;;2.95;2.03;;;16.90;99.90;;;;;;7380298;19;20138;-72
2023/07/27 04:11:53;;;;;;;2.92;1.98;;;17.00;99.90;;;;;;7379127;19;20150;-73
2023/07/27 04:14:19;;;;;;;3.08;1.58;;;17.00;99.90;;;;;;7383650;19;20139;-72
2023/07/27 04:16:44;;;;;;;1.98;1.55;;;16.80;99.90;;;;;;7385966;19;20161;-71
2023/07/27 04:19:11;;;;;;;2.38;1.95;;;16.80;99.90;;;;;;7387979;19;20158;-73
2023/07/27 04:21:36;;;;;;;2.25;1.90;;;16.90;99.90;;;;;;7386310;19;20190;-71
2023/07/27 04:24:02;;;;;;;3.05;1.70;;;16.90;99.90;;;;;;7388900;19;20388;-72
2023/07/27 04:26:29;;;;;;;2.67;1.77;;;16.90;99.90;;;;;;7385809;19;20147;-72
2023/07/27 04:28:54;;;;;;;5.68;2.17;;;16.90;99.90;;;;;;7387349;19;20135;-73
2023/07/27 04:31:20;;;;;;;3.35;1.85;;;17.00;99.90;;;;;;7389249;19;20146;-73
2023/07/27 04:33:46;;;;;;;2.28;1.50;;;17.00;99.90;;;;;;7386546;19;20146;-72
2023/07/27 04:36:11;;;;;;;2.75;2.13;;;17.00;99.90;;;;;;7389073;19;20150;-73
2023/07/27 04:38:37;;;;;;;2.85;2.20;;;17.00;99.90;;;;;;7386238;19;20527;-73
2023/07/27 04:41:03;;;;;;;3.35;1.95;;;16.90;99.90;;;;;;7388142;19;20515;-72
2023/07/27 04:43:29;;;;;;;2.58;2.00;;;16.60;99.90;;;;;;7387817;19;20146;-73
2023/07/27 04:45:54;;;;;;;3.35;2.30;;;16.80;99.90;;;;;;7386612;19;20126;-73
2023/07/27 04:48:20;;;;;;;3.38;2.08;;;17.00;99.90;;;;;;7385743;19;20139;-73
2023/07/27 04:50:47;;;;;;;3.95;2.28;;;17.10;99.90;;;;;;7386082;19;20149;-72
2023/07/27 04:53:13;;;;;;;2.97;1.95;;;17.10;99.90;;;;;;7387357;19;20617;-72
2023/07/27 04:55:38;;;;;;;3.00;2.00;;;17.10;99.90;;;;;;7384479;19;20138;-72
2023/07/27 04:58:04;;;;;;;3.35;1.90;;;17.10;99.90;;;;;;7386909;19;20154;-72
2023/07/27 05:00:30;;;;;;;2.80;2.08;;;17.20;99.90;;;;;;7389340;19;20138;-73
2023/07/27 05:02:57;;;;;;;2.35;1.90;;;17.30;99.90;;;;;;7387384;19;20163;-73
2023/07/27 05:05:23;;;;;;;3.15;1.90;;;17.40;99.90;;;;;;7388215;19;20134;-73
2023/07/27 05:07:48;;;;;;;2.58;1.90;;;17.40;99.90;;;;;;7385177;19;20191;-73
2023/07/27 05:10:14;;;;;;;2.63;1.60;;;17.40;99.90;;;;;;7388255;19;20127;-73
2023/07/27 05:12:40;;;;;;;1.80;1.55;;;17.40;99.90;;;;;;7388774;19;20196;-72
2023/07/27 05:15:06;;;;;;;2.50;1.50;;;17.40;99.90;;;;;;7386203;19;20613;-73
2023/07/27 05:17:32;;;;;;;2.40;1.83;;;17.40;99.90;;;;;;7386935;19;20622;-73
2023/07/27 05:19:58;;;;;;;2.88;1.52;;;17.40;99.90;;;;;;7384691;19;20149;-73
2023/07/27 05:22:25;;;;;;;3.33;1.80;;;17.40;99.90;;;;;;7388016;19;20138;-73
2023/07/27 05:24:50;;;;;;;3.72;1.90;;;17.60;99.90;;;;;;7384484;19;20165;-73
2023/07/27 05:27:16;;;;;;;3.33;1.50;;;17.70;99.90;;;;;;7382671;19;20221;-73
2023/07/27 05:29:42;;;;;;;2.17;1.58;;;17.80;99.90;;;;;;7381871;19;20623;-72
2023/07/27 05:32:08;;;;;;;3.83;2.55;;;17.90;99.90;;;;;;7386951;19;20138;-74
2023/07/27 05:34:34;;;;;;;2.80;1.60;;;18.10;99.90;;;;;;7384675;19;20150;-74
2023/07/27 05:37:00;;;;;;;2.13;1.50;;;18.00;99.90;;;;;;7386269;19;20179;-72
2023/07/27 05:39:28;;;;;;;3.17;1.35;;;17.90;99.90;;;;;;7384883;19;20134;-74
2023/07/27 05:41:54;;;;;;;3.78;1.40;;;17.90;99.90;;;;;;7388192;19;20473;-73
2023/07/27 05:44:21;;;;;;;2.83;1.60;;;17.90;99.90;;;;;;7388014;19;20135;-73
2023/07/27 05:46:46;;;;;;;2.97;1.70;;;18.00;99.90;;;;;;7385295;19;20153;-73
2023/07/27 05:49:12;;;;;;;1.90;1.70;;;18.00;99.90;;;;;;7381647;19;20135;-74
2023/07/27 05:51:40;;;;;;;2.67;1.58;;;18.10;99.90;;;;;;7387403;19;20143;-74
2023/07/27 05:54:06;;;;;;;2.00;1.40;;;17.90;99.90;;;;;;7385959;19;20229;-73
2023/07/27 05:56:32;;;;;;;3.53;1.75;;;17.90;99.90;;;;;;7387199;19;20570;-73
2023/07/27 05:58:57;;;;;;;1.95;1.35;;;17.90;99.90;;;;;;7383953;19;20157;-74
2023/07/27 06:01:23;;;;;;;4.60;1.67;;;18.10;99.90;;;;;;7387348;19;20146;-73
2023/07/27 06:03:49;;;;;;;5.32;1.88;;;18.10;99.90;;;;;;7384114;19;20145;-74
2023/07/27 06:06:15;;;;;;;3.60;1.85;;;18.20;99.90;;;;;;7386410;19;20470;-73
2023/07/27 06:08:41;;;;;;;3.22;1.90;;;18.10;99.90;;;;;;7380199;19;20139;-73
2023/07/27 06:11:09;;;;;;;2.55;2.00;;;18.00;99.90;;;;;;7387725;19;20139;-73
2023/07/27 06:13:35;;;;;;;12.10;4.90;;;18.20;99.90;;;;;;7384762;19;20177;-74
2023/07/27 06:16:02;;;;;;;8.10;3.20;;;18.20;99.90;;;;;;7384939;19;20218;-74
2023/07/27 06:18:28;;;;;;;2.60;1.98;;;18.20;99.90;;;;;;7382172;19;20217;-73
2023/07/27 06:20:54;;;;;;;3.78;1.95;;;18.30;99.90;;;;;;7385027;19;20204;-73
2023/07/27 06:23:20;;;;;;;2.67;2.30;;;18.30;99.90;;;;;;7384985;19;20589;-75
2023/07/27 06:25:46;;;;;;;1.75;1.40;;;18.50;99.90;;;;;;7385199;19;20162;-76
2023/07/27 06:28:12;;;;;;;7.53;3.70;;;18.50;99.90;;;;;;7383154;19;20211;-76
2023/07/27 06:30:39;;;;;;;2.63;1.50;;;18.70;99.90;;;;;;7387682;19;20142;-75
2023/07/27 06:33:05;;;;;;;2.67;1.60;;;19.00;99.90;;;;;;7386279;19;20213;-75
2023/07/27 06:35:32;;;;;;;3.53;1.55;;;19.40;99.90;;;;;;7385641;19;20245;-76
2023/07/27 06:37:58;;;;;;;3.22;1.52;;;19.90;99.90;;;;;;7381488;19;20173;-76
2023/07/27 06:40:25;;;;;;;4.00;2.30;;;20.20;99.90;;;;;;7384623;19;20138;-77
2023/07/27 06:42:51;;;;;;;2.22;1.52;;;20.20;99.90;;;;;;7383852;19;20139;-77
2023/07/27 06:45:17;;;;;;;2.35;1.63;;;20.10;99.90;;;;;;7385173;19;20273;-76
2023/07/27 06:47:43;;;;;;;2.03;1.40;;;19.60;99.90;;;;;;7381314;19;20625;-81
2023/07/27 06:50:09;;;;;;;3.50;2.78;;;19.20;99.90;;;;;;7382819;19;20476;-76
2023/07/27 06:52:35;;;;;;;1.88;1.42;;;19.00;99.90;;;;;;7384762;19;20265;-77
2023/07/27 06:55:00;;;;;;;4.45;1.60;;;19.10;99.90;;;;;;7385142;19;20559;-77
2023/07/27 06:57:27;;;;;;;1.90;1.50;;;19.30;99.90;;;;;;7384983;19;20153;-75
2023/07/27 06:59:52;;;;;;;2.28;1.40;;;19.30;99.90;;;;;;7384640;19;20157;-76
2023/07/27 07:02:18;;;;;;;4.68;1.42;;;19.30;99.90;;;;;;7385232;19;20233;-76
2023/07/27 07:04:45;;;;;;;5.05;2.63;;;19.40;99.90;;;;;;7384158;19;20150;-76
2023/07/27 07:07:11;;;;;;;1.50;1.35;;;19.50;99.90;;;;;;7384332;19;20534;-75
2023/07/27 07:09:38;;;;;;;3.35;2.17;;;19.30;99.90;;;;;;7380422;19;20142;-76
2023/07/27 07:12:05;;;;;;;2.45;1.30;;;19.30;99.90;;;;;;7385817;19;20149;-78
2023/07/27 07:14:31;;;;;;;3.05;1.65;;;19.30;99.90;;;;;;7385914;19;20165;-76
2023/07/27 07:16:58;;;;;;;1.92;1.40;;;19.30;99.90;;;;;;7382322;19;20138;-77
2023/07/27 07:19:24;;;;;;;2.58;1.80;;;19.30;99.90;;;;;;7384163;19;20229;-79
2023/07/27 07:21:49;;;;;;;2.10;1.60;;;19.30;99.90;;;;;;7382804;19;20126;-77
2023/07/27 07:24:15;;;;;;;3.22;1.80;;;19.10;99.90;;;;;;7383026;19;20222;-76
2023/07/27 07:26:41;;;;;;;1.50;1.35;;;19.30;99.90;;;;;;7380425;19;20181;-76
2023/07/27 07:29:07;;;;;;;3.17;1.48;;;19.30;99.90;;;;;;7378269;19;20229;-77
2023/07/27 07:31:33;;;;;;;2.40;2.17;;;19.30;99.90;;;;;;7383928;19;20138;-77
2023/07/27 07:33:59;;;;;;;2.13;1.80;;;19.30;99.90;;;;;;7383780;19;20141;-76
2023/07/27 07:36:25;;;;;;;1.88;1.50;;;19.40;99.90;;;;;;7383642;19;20131;-76
2023/07/27 07:38:52;;;;;;;1.85;1.30;;;19.30;99.90;;;;;;7382514;19;20149;-77
2023/07/27 07:41:18;;;;;;;1.98;1.52;;;19.40;99.90;;;;;;7381971;19;20130;-77
2023/07/27 07:43:43;;;;;;;3.17;1.40;;;19.30;99.90;;;;;;7377861;19;20135;-75
2023/07/27 07:46:13;;;;;;;3.17;1.30;;;19.30;99.90;;;;;;7378570;19;20166;-75
2023/07/27 07:48:39;;;;;;;6.65;2.88;;;19.30;99.90;;;;;;7380127;19;20160;-78
2023/07/27 07:51:12;;;;;;;1.92;1.23;;;19.30;99.90;;;;;;7387739;19;20513;-76
2023/07/27 07:53:38;;;;;;;3.90;2.38;;;19.30;99.90;;;;;;7388787;19;20135;-75
2023/07/27 07:56:04;;;;;;;3.13;1.83;;;19.30;99.90;;;;;;7386819;19;20149;-74
2023/07/27 07:58:31;;;;;;;1.75;1.58;;;19.40;99.90;;;;;;7388631;19;20133;-77
2023/07/27 08:00:57;;;;;;;4.90;1.60;;;19.40;99.90;;;;;;7390672;19;20139;-75
2023/07/27 08:03:23;;;;;;;3.10;1.63;;;19.40;99.90;;;;;;7391114;19;20172;-76
2023/07/27 08:05:48;;;;;;;2.50;1.70;;;19.40;99.90;;;;;;7389158;19;20512;-79
2023/07/27 08:08:14;;;;;;;3.45;1.60;;;19.30;99.90;;;;;;7388249;19;20914;-76
2023/07/27 08:10:40;;;;;;;1.92;1.45;;;19.30;99.90;;;;;;7388613;19;20174;-76
2023/07/27 08:13:06;;;;;;;1.77;1.50;;;19.30;99.90;;;;;;7390717;19;20139;-76
2023/07/27 08:15:32;;;;;;;2.13;1.42;;;19.30;99.90;;;;;;7390204;19;20127;-76
2023/07/27 08:17:58;;;;;;;2.40;1.48;;;19.30;99.90;;;;;;7389812;19;20149;-82
2023/07/27 08:20:23;;;;;;;2.88;1.48;;;19.40;99.90;;;;;;7387911;19;20144;-80
2023/07/27 08:22:49;;;;;;;2.13;1.30;;;19.50;99.90;;;;;;7388959;19;20603;-82
2023/07/27 08:25:15;;;;;;;2.08;1.40;;;19.50;99.90;;;;;;7388677;19;20728;-81
2023/07/27 08:27:41;;;;;;;2.72;1.58;;;19.60;99.90;;;;;;7388652;19;20583;-81
2023/07/27 08:30:08;;;;;;;4.35;1.83;;;19.50;99.90;;;;;;7386828;19;20243;-80
2023/07/27 08:32:34;;;;;;;2.38;1.60;;;19.40;99.90;;;;;;7388411;19;20198;-80
2023/07/27 08:35:00;;;;;;;2.72;1.58;;;19.50;99.90;;;;;;7389178;19;20703;-82
2023/07/27 08:37:25;;;;;;;2.33;1.30;;;19.50;99.90;;;;;;7390224;19;20218;-83
2023/07/27 08:39:51;;;;;;;2.05;1.50;;;19.40;99.90;;;;;;7389611;19;20158;-83
2023/07/27 08:42:19;;;;;;;2.90;1.50;;;19.50;99.90;;;;;;7388234;19;20278;-83
2023/07/27 08:44:46;;;;;;;2.53;1.45;;;19.50;99.90;;;;;;7392434;19;20135;-79
2023/07/27 08:47:12;;;;;;;1.83;1.65;;;19.50;99.90;;;;;;7388786;19;20156;-80
2023/07/27 08:49:38;;;;;;;2.38;1.70;;;19.40;99.90;;;;;;7386899;19;20127;-79
2023/07/27 08:52:05;;;;;;;2.65;2.05;;;19.40;99.90;;;;;;7388006;19;20167;-80
2023/07/27 08:54:31;;;;;;;4.72;1.67;;;19.40;99.90;;;;;;7390609;19;20131;-82
2023/07/27 08:56:57;;;;;;;2.08;1.60;;;19.40;99.90;;;;;;7385772;19;20206;-84
2023/07/27 08:59:24;;;;;;;3.15;1.70;;;19.40;99.90;;;;;;7385706;19;20153;-77
2023/07/27 09:01:51;;;;;;;4.40;1.67;;;19.50;99.90;;;;;;7386186;19;20214;-79
2023/07/27 09:04:16;;;;;;;2.28;1.63;;;19.40;99.90;;;;;;7386475;19;20134;-80
2023/07/27 09:06:44;;;;;;;4.05;1.75;;;19.40;99.90;;;;;;7387991;19;20795;-83
2023/07/27 09:09:28;;;;;;;2.58;1.50;;;19.50;99.90;;;;;;7384157;19;20134;-79
2023/07/27 09:11:54;;;;;;;3.83;1.95;;;19.60;99.90;;;;;;7388094;19;20134;-80
2023/07/27 09:14:21;;;;;;;2.40;1.65;;;19.70;99.90;;;;;;7392337;19;20127;-80
2023/07/27 09:16:48;;;;;;;2.33;1.50;;;19.70;99.90;;;;;;7390303;19;20273;-77
2023/07/27 09:19:17;;;;;;;4.82;1.60;;;19.70;99.90;;;;;;7386100;19;20235;-78
2023/07/27 09:21:45;;;;;;;1.70;1.42;;;19.60;99.90;;;;;;7385301;19;20163;-80
2023/07/27 09:24:12;;;;;;;3.63;1.60;;;19.70;99.90;;;;;;7387108;19;20153;-80
2023/07/27 09:26:46;;;;;;;3.33;1.40;;;19.60;99.90;;;;;;7383491;19;20200;-81
2023/07/27 09:29:17;;;;;;;3.80;2.38;;;19.60;99.90;;;;;;7383593;19;20130;-78
2023/07/27 09:31:51;;;;;;;4.75;2.92;;;19.70;99.90;;;;;;7389081;19;20147;-77
2023/07/27 09:34:19;;;;;;;4.43;3.00;;;19.60;99.90;;;;;;7389246;19;20238;-78
2023/07/27 09:36:45;;;;;;;3.25;2.33;;;19.50;99.90;;;;;;7385793;19;20134;-78
2023/07/27 09:39:13;;;;;;;3.83;2.47;;;19.50;99.90;;;;;;7386637;19;20135;-78
2023/07/27 09:41:44;;;;;;;2.75;1.70;;;19.60;99.90;;;;;;7385966;19;20135;-79
2023/07/27 09:44:17;;;;;;;2.38;1.58;;;19.50;99.90;;;;;;7392682;19;20165;-78
2023/07/27 09:46:47;;;;;;;7.88;5.00;;;19.50;99.90;;;;;;7394166;19;20139;-78
2023/07/27 09:49:14;;;;;;;4.07;2.78;;;19.60;99.90;;;;;;7385751;19;20137;-79
2023/07/27 09:51:41;;;;;;;2.40;1.85;;;19.60;99.90;;;;;;7398545;19;20648;-80
2023/07/27 09:54:07;;;;;;;3.10;1.80;;;19.60;99.90;;;;;;7390250;19;20137;-78
2023/07/27 09:56:33;;;;;;;3.75;1.67;;;19.50;99.90;;;;;;7388296;19;20139;-78
2023/07/27 09:58:59;;;;;;;1.80;1.45;;;19.50;99.90;;;;;;7385884;19;20141;-78
2023/07/27 10:01:27;;;;;;;4.63;1.63;;;19.50;99.90;;;;;;7388701;19;20198;-78
2023/07/27 10:03:57;;;;;;;3.67;1.50;;;19.60;99.90;;;;;;7390268;19;20458;-78
2023/07/27 10:06:25;;;;;;;1.98;1.75;;;19.60;99.90;;;;;;7391549;19;20135;-81
2023/07/27 10:08:52;;;;;;;2.85;2.15;;;19.70;99.90;;;;;;7380998;19;20448;-78
2023/07/27 10:11:26;;;;;;;3.05;2.35;;;19.70;99.90;;;;;;7386029;19;20140;-79
2023/07/27 10:13:53;;;;;;;3.67;2.42;;;19.70;99.90;;;;;;7384575;19;20131;-73
2023/07/27 10:16:22;;;;;;;3.17;1.70;;;19.70;99.90;;;;;;7387889;19;20153;-76
2023/07/27 10:18:52;;;;;;;2.65;1.73;;;19.60;99.90;;;;;;7384344;19;20126;-75
2023/07/27 10:21:20;;;;;;;1.95;1.50;;;19.60;99.90;;;;;;7386662;19;20158;-74
2023/07/27 10:23:54;;;;;;;3.47;1.85;;;19.60;99.90;;;;;;7384596;19;20150;-76
2023/07/27 10:26:20;;;;;;;4.25;2.03;;;19.70;99.90;;;;;;7384615;19;20146;-76
2023/07/27 10:28:49;;;;;;;3.28;2.03;;;19.60;99.90;;;;;;7384105;19;20119;-75
2023/07/27 10:31:24;;;;;;;2.17;1.80;;;19.50;99.90;;;;;;7384075;19;20607;-75
2023/07/27 10:34:03;;;;;;;2.47;1.58;;;19.50;99.90;;;;;;7385668;19;20130;-76
2023/07/27 10:36:47;;;;;;;5.75;2.90;;;19.70;99.90;;;;;;7388214;19;20217;-77
2023/07/27 10:39:18;;;;;;;4.57;3.10;;;19.80;99.90;;;;;;7387924;19;20146;-77
2023/07/27 10:41:59;;;;;;;2.72;2.22;;;19.90;99.90;;;;;;7384157;19;20551;-77
2023/07/27 10:44:27;;;;;;;2.45;1.67;;;19.90;99.90;;;;;;7383121;19;20130;-77
2023/07/27 10:46:58;;;;;;;3.38;2.72;;;20.10;99.90;;;;;;7385354;19;20222;-75
2023/07/27 10:49:26;;;;;;;5.55;2.33;;;20.10;99.90;;;;;;7383320;19;20209;-76
2023/07/27 10:51:52;;;;;;;3.17;1.85;;;20.10;99.90;;;;;;7385038;19;20150;-76
2023/07/27 10:54:18;;;;;;;2.33;2.00;;;20.20;99.90;;;;;;7383545;19;20143;-76
2023/07/27 10:56:44;;;;;;;1.60;1.40;;;20.10;99.90;;;;;;7384354;19;20165;-77
2023/07/27 10:59:14;;;;;;;2.80;1.80;;;20.00;99.90;;;;;;7383506;19;20616;-77
2023/07/27 11:01:40;;;;;;;3.05;1.52;;;20.20;99.90;;;;;;7384127;19;20131;-76
2023/07/27 11:04:07;;;;;;;5.78;4.47;;;20.40;99.90;;;;;;7385317;19;20138;-77
2023/07/27 11:06:42;;;;;;;2.65;1.60;;;20.30;99.90;;;;;;7386145;19;20125;-76
2023/07/27 11:09:16;;;;;;;2.63;1.60;;;20.40;99.90;;;;;;7381615;19;20134;-77
2023/07/27 11:11:43;;;;;;;3.33;1.60;;;20.50;99.90;;;;;;7383215;19;20594;-77
2023/07/27 11:14:09;;;;;;;3.72;1.65;;;20.40;99.90;;;;;;7386822;19;20461;-78
2023/07/27 11:16:38;;;;;;;2.35;1.65;;;20.50;99.90;;;;;;7384933;19;20166;-78
2023/07/27 11:19:06;;;;;;;2.53;1.55;;;20.60;99.90;;;;;;7381589;19;20138;-77
2023/07/27 11:21:36;;;;;;;3.38;1.60;;;20.60;99.90;;;;;;7383617;19;20137;-77
2023/07/27 11:24:03;;;;;;;3.03;1.90;;;20.80;99.90;;;;;;7387436;19;20135;-77
2023/07/27 11:26:30;;;;;;;2.00;1.70;;;20.70;99.90;;;;;;7393401;19;20778;-77
2023/07/27 11:28:57;;;;;;;1.85;1.63;;;20.80;99.90;;;;;;7388509;19;20153;-77
2023/07/27 11:31:23;;;;;;;1.85;1.33;;;20.80;99.90;;;;;;7389779;19;20156;-78
2023/07/27 11:33:48;;;;;;;1.20;1.08;;;20.70;99.90;;;;;;7389188;19;20502;-77
2023/07/27 11:36:14;;;;;;;2.63;1.50;;;20.70;99.90;;;;;;7390669;19;20146;-78
2023/07/27 11:38:41;;;;;;;3.03;1.48;;;20.80;99.90;;;;;;7393774;19;20578;-79
2023/07/27 11:41:07;;;;;;;2.47;1.50;;;20.90;99.90;;;;;;7391999;19;20130;-78
2023/07/27 11:43:33;;;;;;;2.28;1.67;;;21.00;99.90;;;;;;7389858;19;20134;-79
2023/07/27 11:46:01;;;;;;;2.17;1.30;;;21.10;99.90;;;;;;7388234;19;20575;-78
2023/07/27 11:48:28;;;;;;;2.08;1.05;;;21.10;99.90;;;;;;7389352;19;20498;-78
2023/07/27 11:50:59;;;;;;;3.13;2.40;;;21.10;99.90;;;;;;7391743;19;20170;-79
2023/07/27 11:53:28;;;;;;;3.85;2.70;;;21.10;99.90;;;;;;7390089;19;20166;-78
2023/07/27 11:55:55;;;;;;;2.60;1.30;;;21.00;99.90;;;;;;7390114;19;20150;-78
2023/07/27 11:58:29;;;;;;;1.80;1.10;;;20.90;99.90;;;;;;7388318;19;20135;-78
2023/07/27 12:00:55;;;;;;;3.35;1.90;;;21.00;99.90;;;;;;7388918;19;20154;-77
2023/07/27 12:03:23;;;;;;;2.97;1.75;;;21.10;99.90;;;;;;7390305;19;20134;-79
2023/07/27 12:05:54;;;;;;;2.60;1.20;;;21.00;99.90;;;;;;7389905;19;20157;-77
2023/07/27 12:08:21;;;;;;;3.22;1.30;;;21.00;99.90;;;;;;7385505;19;20143;-77
2023/07/27 12:10:54;;;;;;;2.30;1.80;;;21.00;99.90;;;;;;7391213;19;20153;-79
2023/07/27 12:13:22;;;;;;;1.77;1.10;;;21.10;99.90;;;;;;7388748;19;20168;-78
2023/07/27 12:15:56;;;;;;;2.28;1.40;;;21.10;99.90;;;;;;7388468;19;20131;-78
2023/07/27 12:18:26;;;;;;;3.15;1.38;;;21.00;99.90;;;;;;7389950;19;20141;-77
2023/07/27 12:20:54;;;;;;;1.80;1.65;;;20.90;99.90;;;;;;7390437;19;20143;-77
2023/07/27 12:23:20;;;;;;;3.33;1.67;;;21.00;99.90;;;;;;7390684;19;20157;-77
2023/07/27 12:25:47;;;;;;;2.78;1.60;;;21.00;99.90;;;;;;7389085;19;20150;-77
2023/07/27 12:28:13;;;;;;;3.72;1.50;;;21.00;99.90;;;;;;7387097;19;20157;-78
2023/07/27 12:30:39;;;;;;;1.50;1.10;;;20.90;99.90;;;;;;7392321;19;20130;-78
2023/07/27 12:33:05;;;;;;;4.68;1.60;;;20.70;99.90;;;;;;7387611;19;20287;-79
2023/07/27 12:35:31;;;;;;;2.55;1.40;;;20.70;99.90;;;;;;7390015;19;20144;-77
2023/07/27 12:37:58;;;;;;;2.00;1.60;;;20.70;99.90;;;;;;7388844;19;20139;-77
2023/07/27 12:40:25;;;;;;;2.88;2.28;;;20.70;99.90;;;;;;7389198;19;20484;-76
2023/07/27 12:42:51;;;;;;;3.05;1.20;;;20.70;99.90;;;;;;7390143;19;20720;-77
2023/07/27 12:45:19;;;;;;;2.00;1.60;;;20.70;99.90;;;;;;7391381;19;20201;-76
2023/07/27 12:47:48;;;;;;;3.22;1.55;;;20.70;99.90;;;;;;7385633;19;20174;-76
2023/07/27 12:50:15;;;;;;;9.95;7.72;;;20.70;99.90;;;;;;7391114;19;20155;-75